-1°C Temp
-1°C Dewpoint
% Humidity
Temperature
11 KM/H
7 MPH
6 KTS
290°
West North
West

Wind Speed
Clear
Conditions
Pressure 1022.92 (hPa) - 30.21 (in)
Visibility 6.2 (mi) - 10.0 (km)

Current Conditions
EFHK
Location 67(km)
Metar :EFHK 230450Z 29006KT CAVOK M01/M01 Q1023 NOSIG
Mon 23rd September 07:50 am

Airport
  Metar Aviation API Data Provided by https://www.checkwx.com/ PHP scripts by weather34.com ©2019